Latest Coastal Weather Observations for Charles Point

IDD60701

Issued at 1:11 am CST Monday 25 May 2015 (issued every 10 minutes, with the page automatically refreshed every 10 minutes)

About coastal observations | Map of coastal stations | Coastal observations for NT | Marine services | Other Formats
Station Details ID: 014031 Name: CHARLES POINT Lat: -12.39 Lon: 130.63 Height: 14.0 m
Data from the previous 72 hours. | See also: Recent months for locations in Northern Territory
Date/Time
CST
Temp

°C
Wind Pressure Rain
since 9am
mm
Weather Cloud Vis
km
Sea
Height
m
Swell
Dir
 
Speed
knots
Gust
knots
hPa Trend Height
m
Period
s
Dir
25/01:00am 20.7 S 3 4 1015.7 - 0.0 - - - - - - -
25/12:30am 20.7 S 3 4 1015.7 - 0.0 - - - - - - -
25/12:00am 20.8 SSW 3 3 1015.7 - 0.0 - - - - - - -
 
Date/Time
CST
Temp

°C
Wind Pressure Rain
since 9am
mm
Weather Cloud Vis
km
Sea
Height
m
Swell
Dir
 
Speed
knots
Gust
knots
hPa Trend Height
m
Period
s
Dir
24/11:30pm 21.0 SSW 2 3 1015.9 - 0.0 - - - - - - -
24/11:00pm 21.2 SSW 3 4 1015.8 - 0.0 - - - - - - -
24/10:30pm 21.6 SSW 3 3 1015.7 - 0.0 - - - - - - -
24/10:00pm 22.2 S 1 2 1015.6 - 0.0 - - - - - - -
24/09:30pm 22.7 SSW 3 5 1015.5 - 0.0 - - - - - - -
24/09:00pm 23.2 SSW 3 4 1015.2 - 0.0 - - - - - - -
24/08:30pm 24.9 SSE 2 5 1014.9 - 0.0 - - - - - - -
24/08:00pm 26.8 NE 7 9 1014.2 - 0.0 - - - - - - -
24/07:30pm 26.8 NNE 7 9 1013.9 - 0.0 - - - - - - -
24/07:00pm 26.8 NNE 6 8 1013.6 - 0.0 - - - - - - -
24/06:30pm 27.0 NNE 6 9 1013.5 - 0.0 - - - - - - -
24/06:00pm 27.6 NNE 6 8 1013.3 - 0.0 - - - - - - -
24/05:30pm 28.2 NNE 5 7 1013.0 - 0.0 - - - - - - -
24/05:00pm 28.4 NNE 4 7 1012.7 - 0.0 - - - - - - -
24/04:30pm 28.6 NNE 5 7 1012.6 - 0.0 - - - - - - -
24/04:00pm 28.9 NNE 4 6 1012.6 - 0.0 - - - - - - -
24/03:30pm 29.9 NE 4 5 1012.5 - 0.0 - - - - - - -
24/03:00pm 29.6 NE 5 7 1012.7 - 0.0 - - - - - - -
24/02:30pm 30.2 NE 5 7 1012.9 - 0.0 - - - - - - -
24/02:00pm 30.1 ENE 5 7 1013.1 - 0.0 - - - - - - -
24/01:30pm 29.8 E 5 8 1013.5 - 0.0 - - - - - - -
24/01:00pm 29.5 E 6 11 1014.0 - 0.0 - - - - - - -
24/12:30pm 29.2 ESE 7 10 1014.5 - 0.0 - - - - - - -
24/12:00pm 28.6 ESE 7 13 1014.7 - 0.0 - - - - - - -
24/11:30am 27.8 ESE 8 14 1015.0 - 0.0 - - - - - - -
24/11:00am 26.8 ESE 8 14 1015.3 - 0.0 - - - - - - -
24/10:30am 27.0 ESE 7 11 1015.7 - 0.0 - - - - - - -
24/10:00am 25.9 SE 6 10 1015.9 - 0.0 - - - - - - -
24/09:30am 24.9 SE 5 10 1015.9 - 0.0 - - - - - - -
24/09:00am 23.7 SE 5 9 1015.9 - 0.0 - - - - - - -
24/08:30am 22.8 SSE 7 12 1015.7 - 0.0 - - - - - - -
24/08:00am 22.2 SSE 6 10 1015.4 - 0.0 - - - - - - -
24/07:30am 21.1 SSE 6 8 1015.0 - 0.0 - - - - - - -
24/07:00am 20.4 SSE 5 8 1014.7 - 0.0 - - - - - - -
24/06:30am 21.3 SSE 5 8 1014.5 - 0.0 - - - - - - -
24/06:00am 21.2 SE 5 7 1014.2 - 0.0 - - - - - - -
24/05:30am 21.4 SE 4 7 1014.2 - 0.0 - - - - - - -
24/05:00am 21.9 SE 5 8 1014.3 - 0.0 - - - - - - -
24/04:30am 22.4 SE 5 8 1014.2 - 0.0 - - - - - - -
24/04:00am 22.8 SE 5 9 1014.2 - 0.0 - - - - - - -
24/03:30am 22.4 SE 4 7 1014.3 - 0.0 - - - - - - -
24/03:00am 22.2 SSE 4 6 1014.3 - 0.0 - - - - - - -
24/02:30am 22.4 SSE 5 7 1014.4 - 0.0 - - - - - - -
24/02:00am 22.0 SE 3 4 1014.4 - 0.0 - - - - - - -
24/01:30am 22.3 SE 3 4 1014.7 - 0.0 - - - - - - -
24/01:00am 22.3 SE 3 6 1014.9 - 0.0 - - - - - - -
24/12:30am 21.7 S 4 4 1014.8 - 0.0 - - - - - - -
24/12:00am 21.7 S 3 4 1014.7 - 0.0 - - - - - - -
 
Date/Time
CST
Temp

°C
Wind Pressure Rain
since 9am
mm
Weather Cloud Vis
km
Sea
Height
m
Swell
Dir
 
Speed
knots
Gust
knots
hPa Trend Height
m
Period
s
Dir
23/11:30pm 22.1 CALM 0 0 1014.7 - 0.0 - - - - - - -
23/11:00pm 22.3 CALM 0 0 1014.7 - 0.0 - - - - - - -
23/10:30pm 22.6 SW 2 2 1014.7 - 0.0 - - - - - - -
23/10:00pm 23.0 WSW 2 3 1014.5 - 0.0 - - - - - - -
23/09:30pm 23.1 SW 2 3 1014.4 - 0.0 - - - - - - -
23/09:00pm 23.3 W 1 2 1014.3 - 0.0 - - - - - - -
23/08:30pm 23.8 CALM 0 1 1014.0 - 0.0 - - - - - - -
23/08:00pm 24.3 CALM 0 0 1013.7 - 0.0 - - - - - - -
23/07:30pm 24.9 W 1 2 1013.4 - 0.0 - - - - - - -
23/07:00pm 25.9 CALM 0 0 1013.1 - 0.0 - - - - - - -
23/06:30pm 27.4 NNW 5 6 1012.9 - 0.0 - - - - - - -
23/06:00pm 27.9 N 6 7 1012.7 - 0.0 - - - - - - -
23/05:30pm 28.8 NNW 4 6 1012.5 - 0.0 - - - - - - -
23/05:00pm 29.8 NNW 4 6 1012.4 - 0.0 - - - - - - -
23/04:30pm 29.4 N 7 8 1012.1 - 0.0 - - - - - - -
23/04:00pm 29.9 N 4 7 1012.0 - 0.0 - - - - - - -
23/03:30pm 30.4 NNE 5 7 1012.2 - 0.0 - - - - - - -
23/03:00pm 32.1 E 5 9 1012.6 - 0.0 - - - - - - -
23/02:30pm 31.9 SE 7 12 1012.9 - 0.0 - - - - - - -
23/02:00pm 32.1 ESE 5 8 1013.4 - 0.0 - - - - - - -
23/01:30pm 31.6 ESE 5 8 1013.9 - 0.0 - - - - - - -
23/01:00pm 31.4 E 5 10 1014.3 - 0.0 - - - - - - -
23/12:30pm 29.7 E 6 11 1014.9 - 0.0 - - - - - - -
23/12:00pm 29.6 E 5 9 1015.4 - 0.0 - - - - - - -
23/11:30am 29.3 ESE 6 11 1015.7 - 0.0 - - - - - - -
23/11:00am 27.9 ESE 9 14 1016.2 - 0.0 - - - - - - -
23/10:30am 27.3 SE 8 13 1016.6 - 0.0 - - - - - - -
23/10:00am 26.6 ESE 7 13 1016.7 - 0.0 - - - - - - -
23/09:30am 25.9 SE 10 16 1016.8 - 0.0 - - - - - - -
23/09:00am 25.0 SE 7 13 1016.6 - 0.0 - - - - - - -
23/08:30am 24.1 SE 5 8 1016.5 - 0.0 - - - - - - -
23/08:00am 23.3 SE 6 9 1016.4 - 0.0 - - - - - - -
23/07:30am 22.4 SSE 5 7 1016.1 - 0.0 - - - - - - -
23/07:00am 21.9 SSE 5 6 1015.8 - 0.0 - - - - - - -
23/06:30am 22.4 SE 5 8 1015.4 - 0.0 - - - - - - -
23/06:00am 22.7 SSE 5 8 1015.1 - 0.0 - - - - - - -
23/05:30am 22.9 SSE 6 9 1015.0 - 0.0 - - - - - - -
23/05:00am 23.8 SSE 5 9 1014.9 - 0.0 - - - - - - -
23/04:30am 23.9 SSE 5 9 1014.9 - 0.0 - - - - - - -
23/04:00am 23.8 SSE 5 8 1014.8 - 0.0 - - - - - - -
23/03:30am 24.3 SSE 6 8 1014.8 - 0.0 - - - - - - -
23/03:00am 23.9 SSE 5 7 1015.0 - 0.0 - - - - - - -
23/02:30am 24.1 S 4 6 1014.9 - 0.0 - - - - - - -
23/02:00am 24.2 S 4 5 1014.8 - 0.0 - - - - - - -
23/01:30am 24.4 S 4 5 1014.9 - 0.0 - - - - - - -
23/01:00am 24.6 S 4 6 1014.9 - 0.0 - - - - - - -
23/12:30am 24.7 S 4 5 1015.0 - 0.0 - - - - - - -
23/12:00am 25.1 S 4 5 1015.3 - 0.0 - - - - - - -
 
Date/Time
CST
Temp

°C
Wind Pressure Rain
since 9am
mm
Weather Cloud Vis
km
Sea
Height
m
Swell
Dir
 
Speed
knots
Gust
knots
hPa Trend Height
m
Period
s
Dir
22/11:30pm 25.2 S 3 4 1015.7 - 0.0 - - - - - - -
22/11:00pm 25.4 S 3 5 1015.7 - 0.0 - - - - - - -
22/10:30pm 25.4 S 3 5 1015.7 - 0.0 - - - - - - -
22/10:00pm 25.7 SSW 3 4 1015.6 - 0.0 - - - - - - -
22/09:30pm 25.5 SSW 3 4 1015.5 - 0.0 - - - - - - -
22/09:00pm 25.6 SSW 3 5 1015.2 - 0.0 - - - - - - -
22/08:30pm 25.7 SSW 3 4 1014.9 - 0.0 - - - - - - -
22/08:00pm 25.9 SSW 3 3 1014.7 - 0.0 - - - - - - -
22/07:30pm 26.1 SSW 2 4 1014.4 - 0.0 - - - - - - -
22/07:00pm 26.5 SSW 1 3 1014.1 - 0.0 - - - - - - -
22/06:30pm 27.9 CALM 0 0 1013.8 - 0.0 - - - - - - -
22/06:00pm 28.9 N 1 2 1013.6 - 0.0 - - - - - - -
22/05:30pm 29.1 N 2 3 1013.4 - 0.0 - - - - - - -
22/05:00pm 28.7 NNE 6 7 1013.2 - 0.0 - - - - - - -
22/04:30pm 28.6 NNE 9 11 1013.0 - 0.0 - - - - - - -
22/04:00pm 29.0 N 9 10 1013.0 - 0.0 - - - - - - -
22/03:30pm 29.4 N 8 9 1013.2 - 0.0 - - - - - - -
22/03:00pm 28.9 N 8 10 1013.4 - 0.0 - - - - - - -
22/02:30pm 28.8 N 7 8 1013.7 - 0.0 - - - - - - -
22/02:00pm 29.1 NNE 6 8 1013.7 - 0.0 - - - - - - -
22/01:30pm 30.4 NNE 5 6 1014.2 - 0.0 - - - - - - -
22/01:00pm 30.6 NNE 5 7 1014.5 - 0.0 - - - - - - -
22/12:30pm 30.4 NE 4 6 1014.9 - 0.0 - - - - - - -
22/12:00pm 29.5 NE 5 7 1015.2 - 0.0 - - - - - - -
22/11:30am 29.7 NE 4 7 1015.6 - 0.0 - - - - - - -
22/11:00am 29.5 ENE 4 7 1016.1 - 0.0 - - - - - - -
22/10:30am 28.9 E 4 7 1016.2 - 0.0 - - - - - - -
22/10:00am 28.3 E 4 7 1016.3 - 0.0 - - - - - - -
22/09:30am 27.7 E 4 7 1015.9 - 0.0 - - - - - - -
22/09:00am 27.3 E 4 7 1015.9 - 0.0 - - - - - - -
22/08:30am 26.5 E 3 4 1015.9 - 0.0 - - - - - - -
22/08:00am 25.1 SE 2 4 1015.6 - 0.0 - - - - - - -
22/07:30am 24.0 SE 2 3 1015.5 - 0.0 - - - - - - -
22/07:00am 23.9 SSE 3 4 1015.4 - 0.0 - - - - - - -
22/06:30am 24.1 SE 3 4 1015.2 - 0.0 - - - - - - -
22/06:00am 24.0 SSE 3 3 1015.2 - 0.0 - - - - - - -
22/05:30am 24.1 SSE 2 3 1015.1 - 0.0 - - - - - - -
22/05:00am 24.5 ESE 1 2 1015.1 - 0.0 - - - - - - -
22/04:30am 25.4 NNE 3 5 1015.2 - 0.0 - - - - - - -
22/04:00am 25.2 ESE 1 2 1015.3 - 0.0 - - - - - - -
22/03:30am 25.1 ESE 2 3 1015.2 - 0.0 - - - - - - -
22/03:00am 25.4 ESE 3 4 1015.0 - 0.0 - - - - - - -
22/02:30am 25.3 E 1 2 1014.9 - 0.0 - - - - - - -
22/02:00am 25.2 ESE 2 3 1015.0 - 0.0 - - - - - - -
22/01:30am 24.8 SE 3 4 1015.2 - 0.0 - - - - - - -

Other Formats:

Comma delimited format used in spreadsheet applications
http://www.bom.gov.au/fwo/IDD60701/IDD60701.99510.axf

JavaScript Object Notation format (JSON) in row-major order
http://www.bom.gov.au/fwo/IDD60701/IDD60701.99510.json